sensor_id;sensor_type;location;lat;lon;timestamp;pressure;altitude;pressure_sealevel;temperature;humidity
28167;BME280;15455;53.376;-6.262;2023-02-22T00:01:06;100712.44;;;6.88;100.00
28167;BME280;15455;53.376;-6.262;2023-02-22T00:04:05;100718.47;;;6.87;100.00
28167;BME280;15455;53.376;-6.262;2023-02-22T00:06:51;100727.13;;;6.86;100.00
28167;BME280;15455;53.376;-6.262;2023-02-22T00:09:38;100720.13;;;6.80;100.00
28167;BME280;15455;53.376;-6.262;2023-02-22T00:12:23;100728.81;;;6.82;100.00
28167;BME280;15455;53.376;-6.262;2023-02-22T00:15:09;100720.13;;;6.80;100.00
28167;BME280;15455;53.376;-6.262;2023-02-22T00:17:56;100727.91;;;6.80;100.00
28167;BME280;15455;53.376;-6.262;2023-02-22T00:20:41;100736.56;;;6.81;100.00
28167;BME280;15455;53.376;-6.262;2023-02-22T00:23:29;100743.41;;;6.74;100.00
28167;BME280;15455;53.376;-6.262;2023-02-22T00:26:18;100752.72;;;6.61;100.00
28167;BME280;15455;53.376;-6.262;2023-02-22T00:29:04;100753.91;;;6.22;100.00
28167;BME280;15455;53.376;-6.262;2023-02-22T00:31:50;100761.22;;;5.96;100.00
28167;BME280;15455;53.376;-6.262;2023-02-22T00:34:36;100757.50;;;5.80;100.00
28167;BME280;15455;53.376;-6.262;2023-02-22T00:37:21;100758.03;;;5.62;100.00
28167;BME280;15455;53.376;-6.262;2023-02-22T00:40:13;100769.06;;;5.51;100.00
28167;BME280;15455;53.376;-6.262;2023-02-22T00:43:01;100771.44;;;5.39;100.00
28167;BME280;15455;53.376;-6.262;2023-02-22T00:45:47;100773.91;;;5.34;100.00
28167;BME280;15455;53.376;-6.262;2023-02-22T00:48:34;100780.75;;;5.29;100.00
28167;BME280;15455;53.376;-6.262;2023-02-22T00:51:20;100784.13;;;5.27;100.00
28167;BME280;15455;53.376;-6.262;2023-02-22T00:54:08;100777.09;;;5.19;100.00
28167;BME280;15455;53.376;-6.262;2023-02-22T00:56:54;100783.97;;;5.17;100.00
28167;BME280;15455;53.376;-6.262;2023-02-22T00:59:40;100791.75;;;5.19;100.00
28167;BME280;15455;53.376;-6.262;2023-02-22T01:02:25;100800.25;;;5.13;100.00
28167;BME280;15455;53.376;-6.262;2023-02-22T01:05:12;100800.22;;;5.12;100.00
28167;BME280;15455;53.376;-6.262;2023-02-22T01:08:00;100795.03;;;5.10;100.00
28167;BME280;15455;53.376;-6.262;2023-02-22T01:10:46;100790.63;;;5.06;100.00
28167;BME280;15455;53.376;-6.262;2023-02-22T01:13:31;100805.28;;;5.06;100.00
28167;BME280;15455;53.376;-6.262;2023-02-22T01:16:19;100805.19;;;5.02;100.00
28167;BME280;15455;53.376;-6.262;2023-02-22T01:19:04;100819.78;;;4.99;100.00
28167;BME280;15455;53.376;-6.262;2023-02-22T01:21:51;100834.31;;;4.94;100.00
28167;BME280;15455;53.376;-6.262;2023-02-22T01:24:36;100822.25;;;4.93;100.00
28167;BME280;15455;53.376;-6.262;2023-02-22T01:27:22;100826.56;;;4.94;100.00
28167;BME280;15455;53.376;-6.262;2023-02-22T01:30:11;100824.81;;;4.91;100.00
28167;BME280;15455;53.376;-6.262;2023-02-22T01:32:57;100830.78;;;4.89;100.00
28167;BME280;15455;53.376;-6.262;2023-02-22T01:35:42;100837.63;;;4.86;100.00
28167;BME280;15455;53.376;-6.262;2023-02-22T01:38:30;100845.38;;;4.86;100.00
28167;BME280;15455;53.376;-6.262;2023-02-22T01:41:17;100847.09;;;4.86;100.00
28167;BME280;15455;53.376;-6.262;2023-02-22T01:44:38;100847.97;;;4.86;100.00
28167;BME280;15455;53.376;-6.262;2023-02-22T01:47:25;100839.28;;;4.83;100.00
28167;BME280;15455;53.376;-6.262;2023-02-22T01:50:11;100853.84;;;4.81;100.00
28167;BME280;15455;53.376;-6.262;2023-02-22T01:52:57;100850.34;;;4.77;100.00
28167;BME280;15455;53.376;-6.262;2023-02-22T01:55:44;100853.81;;;4.79;100.00
28167;BME280;15455;53.376;-6.262;2023-02-22T01:58:32;100854.66;;;4.77;100.00
28167;BME280;15455;53.376;-6.262;2023-02-22T02:01:21;100856.34;;;4.76;100.00
28167;BME280;15455;53.376;-6.262;2023-02-22T02:04:15;100862.41;;;4.77;100.00
28167;BME280;15455;53.376;-6.262;2023-02-22T02:07:05;100859.00;;;4.79;100.00
28167;BME280;15455;53.376;-6.262;2023-02-22T02:12:44;100859.03;;;4.81;100.00
28167;BME280;15455;53.376;-6.262;2023-02-22T02:15:32;100859.94;;;4.81;100.00
28167;BME280;15455;53.376;-6.262;2023-02-22T02:18:18;100860.75;;;4.80;100.00
28167;BME280;15455;53.376;-6.262;2023-02-22T02:21:23;100871.09;;;4.80;100.00
28167;BME280;15455;53.376;-6.262;2023-02-22T02:24:50;100870.22;;;4.80;100.00
28167;BME280;15455;53.376;-6.262;2023-02-22T02:28:03;100871.13;;;4.82;100.00
28167;BME280;15455;53.376;-6.262;2023-02-22T02:41:02;100883.88;;;4.74;100.00
28167;BME280;15455;53.376;-6.262;2023-02-22T02:44:03;100886.41;;;4.71;100.00
28167;BME280;15455;53.376;-6.262;2023-02-22T02:47:02;100887.31;;;4.73;100.00
28167;BME280;15455;53.376;-6.262;2023-02-22T02:50:23;100888.19;;;4.75;100.00
28167;BME280;15455;53.376;-6.262;2023-02-22T02:53:12;100895.19;;;4.79;100.00
28167;BME280;15455;53.376;-6.262;2023-02-22T02:56:01;100892.66;;;4.81;100.00
28167;BME280;15455;53.376;-6.262;2023-02-22T02:58:50;100886.63;;;4.80;100.00
28167;BME280;15455;53.376;-6.262;2023-02-22T03:01:56;100898.66;;;4.78;100.00
28167;BME280;15455;53.376;-6.262;2023-02-22T03:08:11;100893.56;;;4.83;100.00
28167;BME280;15455;53.376;-6.262;2023-02-22T03:11:22;100889.16;;;4.79;100.00
28167;BME280;15455;53.376;-6.262;2023-02-22T03:14:39;100898.66;;;4.78;100.00
28167;BME280;15455;53.376;-6.262;2023-02-22T03:17:44;100906.41;;;4.78;100.00
28167;BME280;15455;53.376;-6.262;2023-02-22T03:26:16;100905.31;;;4.68;100.00
28167;BME280;15455;53.376;-6.262;2023-02-22T03:29:05;100900.84;;;4.63;100.00
28167;BME280;15455;53.376;-6.262;2023-02-22T03:31:56;100905.13;;;4.61;100.00
28167;BME280;15455;53.376;-6.262;2023-02-22T03:34:56;100903.25;;;4.55;100.00
28167;BME280;15455;53.376;-6.262;2023-02-22T03:37:49;100891.03;;;4.48;100.00
28167;BME280;15455;53.376;-6.262;2023-02-22T03:40:41;100893.44;;;4.42;100.00
28167;BME280;15455;53.376;-6.262;2023-02-22T03:43:37;100908.88;;;4.39;100.00
28167;BME280;15455;53.376;-6.262;2023-02-22T03:46:29;100911.56;;;4.43;100.00
28167;BME280;15455;53.376;-6.262;2023-02-22T03:49:33;100907.34;;;4.47;100.00
28167;BME280;15455;53.376;-6.262;2023-02-22T03:52:22;100917.75;;;4.50;100.00
28167;BME280;15455;53.376;-6.262;2023-02-22T03:55:08;100915.22;;;4.51;100.00
28167;BME280;15455;53.376;-6.262;2023-02-22T03:57:57;100919.53;;;4.51;100.00
28167;BME280;15455;53.376;-6.262;2023-02-22T04:00:47;100918.72;;;4.54;100.00
28167;BME280;15455;53.376;-6.262;2023-02-22T04:03:37;100920.53;;;4.58;100.00
28167;BME280;15455;53.376;-6.262;2023-02-22T04:06:23;100909.25;;;4.54;100.00
28167;BME280;15455;53.376;-6.262;2023-02-22T04:09:10;100912.78;;;4.58;100.00
28167;BME280;15455;53.376;-6.262;2023-02-22T04:11:56;100917.13;;;4.59;100.00
28167;BME280;15455;53.376;-6.262;2023-02-22T04:14:42;100927.41;;;4.57;100.00
28167;BME280;15455;53.376;-6.262;2023-02-22T04:17:28;100928.28;;;4.58;100.00
28167;BME280;15455;53.376;-6.262;2023-02-22T04:20:15;100932.56;;;4.56;100.00
28167;BME280;15455;53.376;-6.262;2023-02-22T04:23:17;100927.31;;;4.52;100.00
28167;BME280;15455;53.376;-6.262;2023-02-22T04:26:02;100940.91;;;4.45;100.00
28167;BME280;15455;53.376;-6.262;2023-02-22T04:28:48;100936.50;;;4.41;100.00
28167;BME280;15455;53.376;-6.262;2023-02-22T04:31:36;100943.44;;;4.42;100.00
28167;BME280;15455;53.376;-6.262;2023-02-22T04:34:22;100944.19;;;4.38;100.00
28167;BME280;15455;53.376;-6.262;2023-02-22T04:37:08;100941.47;;;4.33;100.00
28167;BME280;15455;53.376;-6.262;2023-02-22T04:39:54;100937.88;;;4.28;100.00
28167;BME280;15455;53.376;-6.262;2023-02-22T04:42:39;100949.03;;;4.27;100.00
28167;BME280;15455;53.376;-6.262;2023-02-22T04:45:25;100945.47;;;4.22;100.00
28167;BME280;15455;53.376;-6.262;2023-02-22T04:48:10;100948.84;;;4.20;100.00
28167;BME280;15455;53.376;-6.262;2023-02-22T04:50:55;100947.13;;;4.20;100.00
28167;BME280;15455;53.376;-6.262;2023-02-22T04:53:41;100959.25;;;4.23;100.00
28167;BME280;15455;53.376;-6.262;2023-02-22T04:56:28;100945.53;;;4.24;100.00
28167;BME280;15455;53.376;-6.262;2023-02-22T04:59:13;100951.50;;;4.23;100.00
28167;BME280;15455;53.376;-6.262;2023-02-22T05:02:02;100956.69;;;4.23;100.00
28167;BME280;15455;53.376;-6.262;2023-02-22T05:04:48;100947.28;;;4.25;100.00
28167;BME280;15455;53.376;-6.262;2023-02-22T05:07:33;100947.28;;;4.25;100.00
28167;BME280;15455;53.376;-6.262;2023-02-22T05:10:19;100948.97;;;4.24;100.00
28167;BME280;15455;53.376;-6.262;2023-02-22T05:13:05;100937.78;;;4.24;100.00
28167;BME280;15455;53.376;-6.262;2023-02-22T05:15:50;100947.16;;;4.22;100.00
28167;BME280;15455;53.376;-6.262;2023-02-22T05:18:36;100943.59;;;4.16;100.00
28167;BME280;15455;53.376;-6.262;2023-02-22T05:21:21;100949.69;;;4.18;100.00
28167;BME280;15455;53.376;-6.262;2023-02-22T05:24:08;100967.59;;;4.12;100.00
28167;BME280;15455;53.376;-6.262;2023-02-22T05:26:53;100961.66;;;4.15;100.00
28167;BME280;15455;53.376;-6.262;2023-02-22T05:29:38;100971.09;;;4.14;100.00
28167;BME280;15455;53.376;-6.262;2023-02-22T05:32:23;100971.88;;;4.10;100.00
28167;BME280;15455;53.376;-6.262;2023-02-22T05:35:09;100972.69;;;4.09;100.00
28167;BME280;15455;53.376;-6.262;2023-02-22T05:37:55;100985.41;;;4.02;100.00
28167;BME280;15455;53.376;-6.262;2023-02-22T05:40:42;100983.63;;;4.00;100.00
28167;BME280;15455;53.376;-6.262;2023-02-22T05:43:27;100992.22;;;3.99;100.00
28167;BME280;15455;53.376;-6.262;2023-02-22T05:46:13;100989.66;;;4.01;100.00
28167;BME280;15455;53.376;-6.262;2023-02-22T05:48:59;101003.41;;;4.00;100.00
28167;BME280;15455;53.376;-6.262;2023-02-22T05:51:44;101020.63;;;3.99;100.00
28167;BME280;15455;53.376;-6.262;2023-02-22T05:54:30;101008.47;;;3.97;100.00
28167;BME280;15455;53.376;-6.262;2023-02-22T05:57:15;101005.03;;;3.96;100.00
28167;BME280;15455;53.376;-6.262;2023-02-22T06:00:03;101010.19;;;3.96;100.00
28167;BME280;15455;53.376;-6.262;2023-02-22T06:03:05;101010.16;;;3.95;100.00
28167;BME280;15455;53.376;-6.262;2023-02-22T06:05:51;101015.28;;;3.93;100.00
28167;BME280;15455;53.376;-6.262;2023-02-22T06:08:36;101014.47;;;3.94;100.00
28167;BME280;15455;53.376;-6.262;2023-02-22T06:11:21;101023.94;;;3.95;100.00
28167;BME280;15455;53.376;-6.262;2023-02-22T06:14:07;101031.59;;;3.92;100.00
28167;BME280;15455;53.376;-6.262;2023-02-22T06:16:53;101032.28;;;3.87;100.00
28167;BME280;15455;53.376;-6.262;2023-02-22T06:19:39;101026.22;;;3.85;100.00
28167;BME280;15455;53.376;-6.262;2023-02-22T06:22:25;101029.53;;;3.80;100.00
28167;BME280;15455;53.376;-6.262;2023-02-22T06:25:13;101031.94;;;3.74;100.00
28167;BME280;15455;53.376;-6.262;2023-02-22T06:27:59;101036.25;;;3.75;100.00
28167;BME280;15455;53.376;-6.262;2023-02-22T06:30:45;101040.50;;;3.73;100.00
28167;BME280;15455;53.376;-6.262;2023-02-22T06:33:30;101051.75;;;3.75;100.00
28167;BME280;15455;53.376;-6.262;2023-02-22T06:36:15;101053.50;;;3.76;100.00
28167;BME280;15455;53.376;-6.262;2023-02-22T06:39:01;101058.72;;;3.78;100.00
28167;BME280;15455;53.376;-6.262;2023-02-22T06:41:46;101073.47;;;3.82;100.00
28167;BME280;15455;53.376;-6.262;2023-02-22T06:44:32;101074.19;;;3.78;100.00
28167;BME280;15455;53.376;-6.262;2023-02-22T06:47:17;101073.25;;;3.74;100.00
28167;BME280;15455;53.376;-6.262;2023-02-22T06:50:03;101075.72;;;3.71;100.00
28167;BME280;15455;53.376;-6.262;2023-02-22T06:52:48;101076.50;;;3.69;100.00
28167;BME280;15455;53.376;-6.262;2023-02-22T06:55:34;101078.97;;;3.64;100.00
28167;BME280;15455;53.376;-6.262;2023-02-22T06:58:20;101078.78;;;3.59;100.00
28167;BME280;15455;53.376;-6.262;2023-02-22T07:01:06;101084.59;;;3.52;100.00
28167;BME280;15455;53.376;-6.262;2023-02-22T07:03:51;101086.13;;;3.45;100.00
28167;BME280;15455;53.376;-6.262;2023-02-22T07:06:37;101087.66;;;3.40;100.00
28167;BME280;15455;53.376;-6.262;2023-02-22T07:09:23;101076.47;;;3.40;100.00
28167;BME280;15455;53.376;-6.262;2023-02-22T07:12:08;101080.63;;;3.36;100.00
28167;BME280;15455;53.376;-6.262;2023-02-22T07:14:54;101092.63;;;3.34;100.00
28167;BME280;15455;53.376;-6.262;2023-02-22T07:17:40;101085.63;;;3.30;100.00
28167;BME280;15455;53.376;-6.262;2023-02-22T07:20:28;101082.13;;;3.28;100.00
28167;BME280;15455;53.376;-6.262;2023-02-22T07:23:15;101088.75;;;3.21;100.00
28167;BME280;15455;53.376;-6.262;2023-02-22T07:26:02;101094.75;;;3.20;100.00
28167;BME280;15455;53.376;-6.262;2023-02-22T07:28:48;101089.47;;;3.17;100.00
28167;BME280;15455;53.376;-6.262;2023-02-22T07:31:35;101087.56;;;3.11;100.00
28167;BME280;15455;53.376;-6.262;2023-02-22T07:34:20;101096.94;;;3.08;100.00
28167;BME280;15455;53.376;-6.262;2023-02-22T07:37:06;101105.44;;;3.05;100.00
28167;BME280;15455;53.376;-6.262;2023-02-22T07:39:51;101105.28;;;3.01;100.00
28167;BME280;15455;53.376;-6.262;2023-02-22T07:43:13;101111.16;;;2.97;100.00
28167;BME280;15455;53.376;-6.262;2023-02-22T07:45:59;101110.16;;;2.93;100.00
28167;BME280;15455;53.376;-6.262;2023-02-22T07:48:47;101111.75;;;2.89;100.00
28167;BME280;15455;53.376;-6.262;2023-02-22T07:51:32;101119.41;;;2.86;100.00
28167;BME280;15455;53.376;-6.262;2023-02-22T07:54:17;101120.25;;;2.87;100.00
28167;BME280;15455;53.376;-6.262;2023-02-22T07:57:03;101119.34;;;2.85;100.00
28167;BME280;15455;53.376;-6.262;2023-02-22T07:59:49;101133.84;;;2.83;100.00
28167;BME280;15455;53.376;-6.262;2023-02-22T08:02:35;101142.50;;;2.83;100.00
28167;BME280;15455;53.376;-6.262;2023-02-22T08:05:22;101138.16;;;2.82;100.00
28167;BME280;15455;53.376;-6.262;2023-02-22T08:08:08;101150.31;;;2.86;100.00
28167;BME280;15455;53.376;-6.262;2023-02-22T08:10:54;101152.97;;;2.88;100.00
28167;BME280;15455;53.376;-6.262;2023-02-22T08:13:40;101157.28;;;2.89;100.00
28167;BME280;15455;53.376;-6.262;2023-02-22T08:16:25;101159.78;;;2.87;100.00
28167;BME280;15455;53.376;-6.262;2023-02-22T08:19:10;101156.41;;;2.88;100.00
28167;BME280;15455;53.376;-6.262;2023-02-22T08:21:56;101166.88;;;2.93;100.00
28167;BME280;15455;53.376;-6.262;2023-02-22T08:24:41;101168.63;;;2.94;100.00
28167;BME280;15455;53.376;-6.262;2023-02-22T08:27:28;101176.53;;;2.99;100.00
28167;BME280;15455;53.376;-6.262;2023-02-22T08:30:20;101171.47;;;3.02;100.00
28167;BME280;15455;53.376;-6.262;2023-02-22T08:33:06;101170.41;;;2.95;100.00
28167;BME280;15455;53.376;-6.262;2023-02-22T08:35:52;101169.41;;;2.91;100.00
28167;BME280;15455;53.376;-6.262;2023-02-22T08:38:38;101162.56;;;2.92;100.00
28167;BME280;15455;53.376;-6.262;2023-02-22T08:41:23;101165.13;;;2.92;100.00
28167;BME280;15455;53.376;-6.262;2023-02-22T08:44:09;101160.84;;;2.92;100.00
28167;BME280;15455;53.376;-6.262;2023-02-22T08:46:54;101159.09;;;2.91;100.00
28167;BME280;15455;53.376;-6.262;2023-02-22T08:49:40;101162.75;;;2.98;100.00
28167;BME280;15455;53.376;-6.262;2023-02-22T08:52:26;101170.56;;;3.00;100.00
28167;BME280;15455;53.376;-6.262;2023-02-22T08:55:12;101168.84;;;3.00;100.00
28167;BME280;15455;53.376;-6.262;2023-02-22T08:57:59;101171.53;;;3.03;100.00
28167;BME280;15455;53.376;-6.262;2023-02-22T09:00:45;101165.44;;;3.01;100.00
28167;BME280;15455;53.376;-6.262;2023-02-22T09:03:31;101167.31;;;3.05;100.00
28167;BME280;15455;53.376;-6.262;2023-02-22T09:06:17;101155.34;;;3.07;100.00
28167;BME280;15455;53.376;-6.262;2023-02-22T09:09:03;101173.56;;;3.12;100.00
28167;BME280;15455;53.376;-6.262;2023-02-22T09:11:48;101171.16;;;3.17;100.00
28167;BME280;15455;53.376;-6.262;2023-02-22T09:14:37;101168.66;;;3.20;100.00
28167;BME280;15455;53.376;-6.262;2023-02-22T09:17:22;101171.31;;;3.21;100.00
28167;BME280;15455;53.376;-6.262;2023-02-22T09:20:08;101170.50;;;3.22;100.00
28167;BME280;15455;53.376;-6.262;2023-02-22T09:22:56;101177.72;;;3.33;100.00
28167;BME280;15455;53.376;-6.262;2023-02-22T09:25:41;101179.56;;;3.37;100.00
28167;BME280;15455;53.376;-6.262;2023-02-22T09:28:26;101177.25;;;3.44;100.00
28167;BME280;15455;53.376;-6.262;2023-02-22T09:31:13;101182.59;;;3.51;100.00
28167;BME280;15455;53.376;-6.262;2023-02-22T09:33:58;101180.13;;;3.54;100.00
28167;BME280;15455;53.376;-6.262;2023-02-22T09:36:45;101186.38;;;3.60;100.00
28167;BME280;15455;53.376;-6.262;2023-02-22T09:39:31;101177.81;;;3.61;100.00
28167;BME280;15455;53.376;-6.262;2023-02-22T09:42:31;101178.78;;;3.65;100.00
28167;BME280;15455;53.376;-6.262;2023-02-22T09:45:26;101187.69;;;3.75;100.00
28167;BME280;15455;53.376;-6.262;2023-02-22T09:48:13;101189.56;;;3.79;100.00
28167;BME280;15455;53.376;-6.262;2023-02-22T09:51:13;101192.28;;;3.83;100.00
28167;BME280;15455;53.376;-6.262;2023-02-22T09:54:03;101184.72;;;3.90;100.00
28167;BME280;15455;53.376;-6.262;2023-02-22T09:56:51;101191.94;;;4.00;100.00
28167;BME280;15455;53.376;-6.262;2023-02-22T09:59:56;101194.72;;;4.06;100.00
28167;BME280;15455;53.376;-6.262;2023-02-22T10:06:23;101202.09;;;4.23;100.00
28167;BME280;15455;53.376;-6.262;2023-02-22T10:09:09;101197.25;;;4.32;100.00
28167;BME280;15455;53.376;-6.262;2023-02-22T10:12:22;101202.41;;;4.32;100.00
28167;BME280;15455;53.376;-6.262;2023-02-22T10:24:21;101209.91;;;4.53;100.00
28167;BME280;15455;53.376;-6.262;2023-02-22T10:27:19;101205.19;;;4.68;100.00
28167;BME280;15455;53.376;-6.262;2023-02-22T10:30:53;101208.03;;;4.78;100.00
28167;BME280;15455;53.376;-6.262;2023-02-22T10:33:20;101204.59;;;4.77;100.00
28167;BME280;15455;53.376;-6.262;2023-02-22T10:36:19;101217.84;;;4.90;100.00
28167;BME280;15455;53.376;-6.262;2023-02-22T10:42:01;101224.63;;;5.16;100.00
28167;BME280;15455;53.376;-6.262;2023-02-22T10:44:50;101207.50;;;5.20;100.00
28167;BME280;15455;53.376;-6.262;2023-02-22T10:47:35;101215.06;;;5.14;100.00
28167;BME280;15455;53.376;-6.262;2023-02-22T10:50:21;101217.72;;;5.17;100.00
28167;BME280;15455;53.376;-6.262;2023-02-22T10:53:08;101223.78;;;5.16;100.00
28167;BME280;15455;53.376;-6.262;2023-02-22T10:58:58;101226.97;;;5.07;100.00
28167;BME280;15455;53.376;-6.262;2023-02-22T11:01:46;101224.72;;;5.19;100.00
28167;BME280;15455;53.376;-6.262;2023-02-22T11:04:47;101218.91;;;5.28;100.00
28167;BME280;15455;53.376;-6.262;2023-02-22T11:07:35;101219.97;;;5.35;100.00
28167;BME280;15455;53.376;-6.262;2023-02-22T11:10:30;101227.94;;;5.44;100.00
28167;BME280;15455;53.376;-6.262;2023-02-22T11:13:36;101233.34;;;5.52;100.00
28167;BME280;15455;53.376;-6.262;2023-02-22T11:16:42;101226.84;;;5.68;100.00
28167;BME280;15455;53.376;-6.262;2023-02-22T11:19:32;101232.34;;;5.82;100.00
28167;BME280;15455;53.376;-6.262;2023-02-22T11:22:28;101226.47;;;5.87;100.00
28167;BME280;15455;53.376;-6.262;2023-02-22T11:25:23;101235.19;;;5.91;100.00
28167;BME280;15455;53.376;-6.262;2023-02-22T11:28:27;101232.81;;;5.99;100.00
28167;BME280;15455;53.376;-6.262;2023-02-22T11:31:27;101240.56;;;5.97;100.00
28167;BME280;15455;53.376;-6.262;2023-02-22T11:34:29;101240.66;;;6.02;100.00
28167;BME280;15455;53.376;-6.262;2023-02-22T11:37:33;101246.22;;;6.17;100.00
28167;BME280;15455;53.376;-6.262;2023-02-22T11:40:21;101243.09;;;6.32;100.00
28167;BME280;15455;53.376;-6.262;2023-02-22T11:43:13;101236.53;;;6.48;100.00
28167;BME280;15455;53.376;-6.262;2023-02-22T11:46:03;101229.97;;;6.64;100.00
28167;BME280;15455;53.376;-6.262;2023-02-22T11:49:05;101246.47;;;6.68;100.00
28167;BME280;15455;53.376;-6.262;2023-02-22T11:55:28;101249.50;;;6.48;100.00
28167;BME280;15455;53.376;-6.262;2023-02-22T11:58:51;101262.88;;;6.67;100.00
28167;BME280;15455;53.376;-6.262;2023-02-22T12:01:51;101264.38;;;6.57;100.00
28167;BME280;15455;53.376;-6.262;2023-02-22T12:17:18;101268.75;;;6.58;100.00
28167;BME280;15455;53.376;-6.262;2023-02-22T12:20:21;101272.28;;;6.62;100.00
28167;BME280;15455;53.376;-6.262;2023-02-22T12:23:15;101273.91;;;6.58;100.00
28167;BME280;15455;53.376;-6.262;2023-02-22T12:26:08;101285.41;;;6.69;100.00
28167;BME280;15455;53.376;-6.262;2023-02-22T12:29:12;101273.38;;;6.73;100.00
28167;BME280;15455;53.376;-6.262;2023-02-22T12:35:11;101275.53;;;6.92;100.00
28167;BME280;15455;53.376;-6.262;2023-02-22T12:38:09;101275.69;;;7.00;100.00
28167;BME280;15455;53.376;-6.262;2023-02-22T12:41:06;101275.69;;;7.00;100.00
28167;BME280;15455;53.376;-6.262;2023-02-22T12:47:15;101288.03;;;7.12;100.00
28167;BME280;15455;53.376;-6.262;2023-02-22T12:50:11;101291.06;;;6.91;100.00
28167;BME280;15455;53.376;-6.262;2023-02-22T12:53:13;101294.78;;;7.02;100.00
28167;BME280;15455;53.376;-6.262;2023-02-22T12:56:30;101285.34;;;7.07;100.00
28167;BME280;15455;53.376;-6.262;2023-02-22T13:02:34;101288.59;;;6.97;100.00
28167;BME280;15455;53.376;-6.262;2023-02-22T13:05:21;101289.84;;;7.16;100.00
28167;BME280;15455;53.376;-6.262;2023-02-22T13:08:40;101294.66;;;6.98;100.00
28167;BME280;15455;53.376;-6.262;2023-02-22T13:17:41;101308.41;;;6.92;100.00
28167;BME280;15455;53.376;-6.262;2023-02-22T13:20:35;101299.69;;;6.90;100.00
28167;BME280;15455;53.376;-6.262;2023-02-22T13:27:21;101312.38;;;6.76;100.00
28167;BME280;15455;53.376;-6.262;2023-02-22T13:36:37;101310.41;;;6.66;100.00
28167;BME280;15455;53.376;-6.262;2023-02-22T13:42:45;101326.97;;;6.72;100.00
28167;BME280;15455;53.376;-6.262;2023-02-22T13:51:53;101331.41;;;6.76;100.00
28167;BME280;15455;53.376;-6.262;2023-02-22T13:54:46;101334.91;;;6.78;100.00
28167;BME280;15455;53.376;-6.262;2023-02-22T13:57:46;101327.75;;;6.68;100.00
28167;BME280;15455;53.376;-6.262;2023-02-22T14:03:35;101341.81;;;6.78;100.00
28167;BME280;15455;53.376;-6.262;2023-02-22T14:06:38;101340.97;;;6.79;100.00
28167;BME280;15455;53.376;-6.262;2023-02-22T14:09:55;101342.81;;;6.83;100.00
28167;BME280;15455;53.376;-6.262;2023-02-22T14:12:47;101342.88;;;6.86;100.00
28167;BME280;15455;53.376;-6.262;2023-02-22T14:15:33;101344.03;;;6.99;100.00
28167;BME280;15455;53.376;-6.262;2023-02-22T14:18:19;101345.59;;;6.92;100.00
28167;BME280;15455;53.376;-6.262;2023-02-22T14:21:16;101356.81;;;6.91;100.00
28167;BME280;15455;53.376;-6.262;2023-02-22T14:24:14;101345.47;;;6.86;100.00
28167;BME280;15455;53.376;-6.262;2023-02-22T14:27:02;101344.66;;;6.90;100.00
28167;BME280;15455;53.376;-6.262;2023-02-22T14:29:55;101348.09;;;6.88;100.00
28167;BME280;15455;53.376;-6.262;2023-02-22T14:32:41;101354.16;;;6.88;100.00
28167;BME280;15455;53.376;-6.262;2023-02-22T14:35:35;101346.50;;;6.94;100.00
28167;BME280;15455;53.376;-6.262;2023-02-22T14:38:34;101358.72;;;7.00;100.00
28167;BME280;15455;53.376;-6.262;2023-02-22T14:41:26;101363.09;;;7.01;100.00
28167;BME280;15455;53.376;-6.262;2023-02-22T14:44:20;101358.13;;;7.12;100.00
28167;BME280;15455;53.376;-6.262;2023-02-22T14:47:15;101363.28;;;7.10;100.00
28167;BME280;15455;53.376;-6.262;2023-02-22T14:50:27;101359.84;;;7.11;100.00
28167;BME280;15455;53.376;-6.262;2023-02-22T14:56:20;101370.28;;;7.15;100.00
28167;BME280;15455;53.376;-6.262;2023-02-22T14:59:16;101366.97;;;7.22;100.00
28167;BME280;15455;53.376;-6.262;2023-02-22T15:02:12;101378.22;;;7.21;100.00
28167;BME280;15455;53.376;-6.262;2023-02-22T15:04:59;101372.97;;;7.19;100.00
28167;BME280;15455;53.376;-6.262;2023-02-22T15:07:54;101377.28;;;7.17;100.00
28167;BME280;15455;53.376;-6.262;2023-02-22T15:10:43;101381.09;;;7.35;100.00
28167;BME280;15455;53.376;-6.262;2023-02-22T15:13:30;101379.44;;;7.37;100.00
28167;BME280;15455;53.376;-6.262;2023-02-22T15:16:20;101377.34;;;7.61;100.00
28167;BME280;15455;53.376;-6.262;2023-02-22T15:19:08;101380.41;;;7.86;100.00
28167;BME280;15455;53.376;-6.262;2023-02-22T15:21:57;101378.84;;;7.96;100.00
28167;BME280;15455;53.376;-6.262;2023-02-22T15:24:46;101378.00;;;7.98;100.00
28167;BME280;15455;53.376;-6.262;2023-02-22T15:27:44;101380.59;;;7.97;100.00
28167;BME280;15455;53.376;-6.262;2023-02-22T15:30:31;101380.47;;;7.91;100.00
28167;BME280;15455;53.376;-6.262;2023-02-22T15:33:19;101383.72;;;7.79;100.00
28167;BME280;15455;53.376;-6.262;2023-02-22T15:36:15;101383.72;;;7.79;100.00
28167;BME280;15455;53.376;-6.262;2023-02-22T15:39:02;101376.28;;;7.97;100.00
28167;BME280;15455;53.376;-6.262;2023-02-22T15:42:08;101378.06;;;8.02;100.00
28167;BME280;15455;53.376;-6.262;2023-02-22T15:44:54;101378.22;;;8.09;100.00
28167;BME280;15455;53.376;-6.262;2023-02-22T15:47:39;101391.19;;;8.08;100.00
28167;BME280;15455;53.376;-6.262;2023-02-22T15:50:30;101390.16;;;7.99;100.00
28167;BME280;15455;53.376;-6.262;2023-02-22T15:53:30;101390.00;;;7.90;100.00
28167;BME280;15455;53.376;-6.262;2023-02-22T15:56:26;101395.72;;;7.72;100.00
28167;BME280;15455;53.376;-6.262;2023-02-22T15:59:16;101393.75;;;7.60;100.00
28167;BME280;15455;53.376;-6.262;2023-02-22T16:02:19;101393.00;;;7.66;100.00
28167;BME280;15455;53.376;-6.262;2023-02-22T16:05:12;101388.94;;;7.79;100.00
28167;BME280;15455;53.376;-6.262;2023-02-22T16:08:00;101394.06;;;7.76;100.00
28167;BME280;15455;53.376;-6.262;2023-02-22T16:10:56;101388.56;;;7.60;100.00
28167;BME280;15455;53.376;-6.262;2023-02-22T16:13:50;101395.97;;;7.42;100.00
28167;BME280;15455;53.376;-6.262;2023-02-22T16:16:37;101405.06;;;7.21;100.00
28167;BME280;15455;53.376;-6.262;2023-02-22T16:19:38;101420.22;;;7.03;100.00